Time;durP1;ratioP1;P1;durP2;ratioP2;P2;SDS_P1;SDS_P2;PMS_P1;PMS_P2;Temp;Humidity;BMP_temperature;BMP_pressure;BME280_temperature;BME280_humidity;BME280_pressure;Samples;Min_cycle;Max_cycle;Signal;HPM_P1;HPM_P2
2023/11/12 00:00:37;;;;;;;3.45;2.92;;;8.30;99.90;;;;;;5031633;28;20034;-54
2023/11/12 00:03:03;;;;;;;5.68;3.05;;;8.30;99.90;;;;;;5032845;28;20029;-53
2023/11/12 00:05:29;;;;;;;5.03;3.05;;;8.40;99.90;;;;;;5033206;28;20460;-53
2023/11/12 00:07:55;;;;;;;7.22;3.53;;;8.40;99.90;;;;;;5032902;28;20033;-53
2023/11/12 00:10:20;;;;;;;6.72;3.90;;;8.40;99.90;;;;;;5032670;28;20025;-53
2023/11/12 00:12:46;;;;;;;8.57;3.17;;;8.40;99.90;;;;;;5032507;28;20041;-54
2023/11/12 00:15:12;;;;;;;5.30;3.35;;;8.50;99.90;;;;;;5032845;28;20033;-54
2023/11/12 00:17:42;;;;;;;4.75;3.28;;;8.50;99.90;;;;;;5031644;28;20049;-54
2023/11/12 00:20:14;;;;;;;6.75;3.47;;;8.40;99.90;;;;;;5031632;28;20076;-53
2023/11/12 00:22:43;;;;;;;9.80;3.38;;;8.40;99.90;;;;;;5032981;28;20034;-53
2023/11/12 00:25:12;;;;;;;6.90;4.05;;;8.40;99.90;;;;;;5032475;28;20026;-53
2023/11/12 00:27:38;;;;;;;4.78;2.92;;;8.50;99.90;;;;;;5031569;28;20549;-53
2023/11/12 00:30:05;;;;;;;4.78;3.47;;;8.50;99.90;;;;;;5032533;28;20109;-54
2023/11/12 00:32:32;;;;;;;6.60;3.20;;;8.50;99.90;;;;;;5031495;28;20504;-54
2023/11/12 00:34:58;;;;;;;4.33;3.07;;;8.40;99.90;;;;;;5032819;28;20072;-55
2023/11/12 00:37:24;;;;;;;4.25;3.45;;;8.50;99.90;;;;;;5032450;28;20049;-53
2023/11/12 00:39:49;;;;;;;9.88;3.70;;;8.50;99.90;;;;;;5032474;28;20382;-53
2023/11/12 00:42:15;;;;;;;5.53;3.65;;;8.50;99.90;;;;;;5032378;28;20478;-53
2023/11/12 00:44:41;;;;;;;9.82;4.53;;;8.50;99.90;;;;;;5031691;28;20021;-53
2023/11/12 00:47:07;;;;;;;7.47;3.85;;;8.50;99.90;;;;;;5036796;28;20053;-54
2023/11/12 00:49:33;;;;;;;6.00;3.20;;;8.50;99.90;;;;;;5035695;28;20029;-50
2023/11/12 00:51:58;;;;;;;10.25;4.10;;;8.50;99.90;;;;;;5036530;28;20113;-54
2023/11/12 00:54:24;;;;;;;8.30;3.72;;;8.50;99.90;;;;;;5036343;28;20052;-52
2023/11/12 00:56:50;;;;;;;4.22;3.55;;;8.40;99.90;;;;;;5036598;28;20388;-51
2023/11/12 00:59:16;;;;;;;4.85;3.20;;;8.40;99.90;;;;;;5036419;28;20081;-53
2023/11/12 01:01:43;;;;;;;5.38;3.63;;;8.40;99.90;;;;;;5036468;28;20026;-52
2023/11/12 01:04:11;;;;;;;4.90;2.97;;;8.40;99.90;;;;;;5036720;28;20097;-53
2023/11/12 01:06:37;;;;;;;4.57;3.20;;;8.30;99.90;;;;;;5036204;28;20470;-52
2023/11/12 01:09:03;;;;;;;6.10;3.92;;;8.30;99.90;;;;;;5036077;28;20063;-53
2023/11/12 01:11:29;;;;;;;6.90;3.35;;;8.20;99.90;;;;;;5048233;28;20444;-54
2023/11/12 01:13:54;;;;;;;6.07;3.88;;;8.20;99.90;;;;;;5056177;28;20032;-53
2023/11/12 01:16:20;;;;;;;6.45;3.30;;;8.10;99.90;;;;;;5044800;28;20025;-51
2023/11/12 01:18:46;;;;;;;14.77;4.80;;;8.10;99.90;;;;;;5035592;28;20037;-53
2023/11/12 01:21:12;;;;;;;8.27;4.45;;;8.00;99.90;;;;;;5036145;28;20429;-53
2023/11/12 01:23:38;;;;;;;6.75;3.63;;;8.00;99.90;;;;;;5036057;28;20382;-53
2023/11/12 01:26:04;;;;;;;5.93;3.67;;;8.00;99.90;;;;;;5036026;28;20030;-49
2023/11/12 01:28:31;;;;;;;6.65;3.80;;;7.90;99.90;;;;;;5033723;28;20025;-53
2023/11/12 01:30:58;;;;;;;6.20;4.50;;;7.90;99.90;;;;;;5035787;28;20532;-54
2023/11/12 01:33:24;;;;;;;5.72;4.07;;;7.80;99.90;;;;;;5035351;28;20053;-52
2023/11/12 01:35:51;;;;;;;12.30;4.28;;;7.80;99.90;;;;;;5035864;28;20064;-51
2023/11/12 01:38:17;;;;;;;10.37;5.63;;;7.80;99.90;;;;;;5035612;28;20046;-54
2023/11/12 01:40:43;;;;;;;10.38;4.15;;;7.70;99.90;;;;;;5035690;28;20632;-54
2023/11/12 01:43:09;;;;;;;8.00;4.35;;;7.70;99.90;;;;;;5035704;28;20040;-52
2023/11/12 01:45:35;;;;;;;5.85;4.22;;;7.70;99.90;;;;;;5036670;28;20021;-54
2023/11/12 01:48:03;;;;;;;7.72;4.03;;;7.60;99.90;;;;;;5048728;28;20025;-48
2023/11/12 01:50:29;;;;;;;8.55;4.68;;;7.60;99.90;;;;;;5035733;28;20036;-51
2023/11/12 01:52:56;;;;;;;6.13;3.63;;;7.60;99.90;;;;;;5034597;28;20123;-54
2023/11/12 01:55:24;;;;;;;7.55;4.30;;;7.60;99.90;;;;;;5035360;28;20033;-38
2023/11/12 01:57:52;;;;;;;;;;;7.60;99.90;;;;;;5034423;28;20044;-38
2023/11/12 02:00:19;;;;;;;6.90;4.63;;;7.50;99.90;;;;;;5035681;28;20281;-37
2023/11/12 02:02:45;;;;;;;6.30;3.67;;;7.50;99.90;;;;;;5035444;28;20509;-37
2023/11/12 02:05:11;;;;;;;9.00;4.40;;;7.50;99.90;;;;;;5034282;28;20103;-38
2023/11/12 02:07:38;;;;;;;7.10;4.55;;;7.50;99.90;;;;;;5034416;28;20022;-37
2023/11/12 02:10:15;;;;;;;8.35;4.30;;;7.50;99.90;;;;;;5035244;28;20052;-37
2023/11/12 02:12:45;;;;;;;6.97;4.10;;;7.50;99.90;;;;;;5035291;28;20371;-38
2023/11/12 02:15:15;;;;;;;7.57;4.32;;;7.50;99.90;;;;;;5034227;28;20025;-37
2023/11/12 02:17:44;;;;;;;11.52;4.80;;;7.50;99.90;;;;;;5015105;28;20555;-38
2023/11/12 02:20:16;;;;;;;12.45;4.80;;;7.40;99.90;;;;;;5030568;28;20040;-37
2023/11/12 02:22:43;;;;;;;10.60;4.05;;;7.40;99.90;;;;;;5032270;28;20083;-39
2023/11/12 02:25:09;;;;;;;13.20;5.13;;;7.40;99.90;;;;;;5034714;28;20494;-38
2023/11/12 02:27:35;;;;;;;8.50;4.72;;;7.40;99.90;;;;;;5034954;28;20051;-38
2023/11/12 02:30:03;;;;;;;9.20;4.35;;;7.40;99.90;;;;;;5034939;28;20104;-38
2023/11/12 02:32:34;;;;;;;8.10;4.38;;;7.40;99.90;;;;;;5034849;28;20033;-38
2023/11/12 02:35:00;;;;;;;7.60;5.00;;;7.40;99.90;;;;;;5035099;28;20500;-37
2023/11/12 02:37:26;;;;;;;9.05;4.30;;;7.30;99.90;;;;;;5034566;28;20049;-38
2023/11/12 02:39:52;;;;;;;9.93;4.70;;;7.30;99.90;;;;;;5033230;28;20026;-53
2023/11/12 02:42:21;;;;;;;8.55;5.13;;;7.30;99.90;;;;;;5034421;28;20053;-54
2023/11/12 02:44:48;;;;;;;5.70;4.03;;;7.30;99.90;;;;;;5034828;28;20022;-54
2023/11/12 02:47:13;;;;;;;6.57;4.35;;;7.20;99.90;;;;;;5034665;28;20510;-54
2023/11/12 02:50:05;;;;;;;7.85;4.63;;;7.20;99.90;;;;;;5034482;28;20105;-54
2023/11/12 02:52:34;;;;;;;7.43;4.45;;;7.20;99.90;;;;;;5034324;28;20037;-54
2023/11/12 02:55:00;;;;;;;10.40;4.63;;;7.10;99.90;;;;;;5034259;28;20041;-55
2023/11/12 02:57:26;;;;;;;9.48;4.97;;;7.10;99.90;;;;;;5034000;28;20402;-54
2023/11/12 02:59:53;;;;;;;7.18;3.90;;;7.10;99.90;;;;;;5033791;28;20059;-54
2023/11/12 03:02:19;;;;;;;7.22;4.38;;;7.10;99.90;;;;;;5032988;28;20025;-39
2023/11/12 03:04:46;;;;;;;8.75;4.72;;;7.10;99.90;;;;;;5034039;28;20032;-38
2023/11/12 03:07:11;;;;;;;7.20;4.43;;;7.10;99.90;;;;;;5032714;28;20025;-37
2023/11/12 03:09:37;;;;;;;6.45;4.45;;;7.10;99.90;;;;;;5031764;28;20095;-38
2023/11/12 03:12:04;;;;;;;6.93;4.78;;;7.10;99.90;;;;;;5033842;28;20064;-44
2023/11/12 03:14:31;;;;;;;10.43;5.60;;;7.10;99.90;;;;;;5033758;28;20389;-53
2023/11/12 03:16:56;;;;;;;7.13;4.80;;;7.00;99.90;;;;;;5033836;28;20029;-54
2023/11/12 03:19:23;;;;;;;8.02;4.53;;;7.00;99.90;;;;;;5033602;28;20037;-53
2023/11/12 03:21:52;;;;;;;8.68;5.03;;;7.00;99.90;;;;;;5031214;28;20021;-50
2023/11/12 03:24:18;;;;;;;9.45;6.10;;;6.90;99.90;;;;;;5020842;28;20470;-52
2023/11/12 03:26:44;;;;;;;8.10;5.38;;;6.70;99.90;;;;;;5031960;28;20471;-54
2023/11/12 03:29:10;;;;;;;10.82;5.57;;;6.70;99.90;;;;;;5032702;28;20018;-54
2023/11/12 03:31:35;;;;;;;12.60;5.60;;;6.70;99.90;;;;;;5032183;28;20025;-54
2023/11/12 03:34:02;;;;;;;9.10;4.88;;;6.70;99.90;;;;;;5033810;28;20025;-53
2023/11/12 03:36:28;;;;;;;7.05;5.55;;;6.60;99.90;;;;;;5033799;28;20017;-51
2023/11/12 03:38:54;;;;;;;9.07;5.63;;;6.60;99.90;;;;;;5033267;28;20521;-38
2023/11/12 03:41:20;;;;;;;8.02;4.85;;;6.70;99.90;;;;;;5033497;28;20013;-38
2023/11/12 03:43:46;;;;;;;9.05;5.22;;;6.70;99.90;;;;;;5033459;28;20017;-38
2023/11/12 03:46:12;;;;;;;10.20;5.00;;;6.80;99.90;;;;;;5033322;28;20524;-36
2023/11/12 03:48:37;;;;;;;8.32;5.00;;;6.80;99.90;;;;;;5031766;28;20496;-35
2023/11/12 03:53:48;;;;;;;7.32;4.63;;;6.80;99.90;;;;;;5032258;28;20496;-38
2023/11/12 03:56:14;;;;;;;8.68;4.40;;;6.80;99.90;;;;;;5033036;28;20026;-36
2023/11/12 03:58:40;;;;;;;9.00;5.20;;;6.80;99.90;;;;;;5031883;28;20495;-37
2023/11/12 04:01:05;;;;;;;12.80;5.47;;;6.80;99.90;;;;;;5033177;28;20067;-39
2023/11/12 04:03:31;;;;;;;10.00;5.75;;;6.80;99.90;;;;;;5031754;28;20401;-37
2023/11/12 04:05:56;;;;;;;6.53;4.85;;;6.70;99.90;;;;;;5032963;28;20029;-38
2023/11/12 04:08:22;;;;;;;11.88;5.22;;;6.80;99.90;;;;;;5033118;28;20030;-56
2023/11/12 04:10:48;;;;;;;9.25;5.60;;;6.80;99.90;;;;;;5033006;28;20030;-53
2023/11/12 04:13:14;;;;;;;10.82;5.30;;;6.80;99.90;;;;;;5032927;28;20025;-54
2023/11/12 04:15:39;;;;;;;11.65;5.72;;;6.90;99.90;;;;;;5032961;28;20044;-54
2023/11/12 04:18:05;;;;;;;9.23;5.85;;;7.00;99.90;;;;;;5032874;28;20021;-54
2023/11/12 04:20:32;;;;;;;10.18;5.15;;;6.90;99.90;;;;;;5032463;28;20018;-47
2023/11/12 04:22:58;;;;;;;9.60;5.63;;;7.00;99.90;;;;;;5032975;28;20460;-54
2023/11/12 04:25:24;;;;;;;8.48;5.82;;;7.00;99.90;;;;;;5032885;28;20488;-53
2023/11/12 04:27:50;;;;;;;10.65;5.72;;;7.00;99.90;;;;;;5031660;28;20429;-54
2023/11/12 04:30:17;;;;;;;9.18;4.60;;;7.00;99.90;;;;;;5033023;28;20087;-53
2023/11/12 04:32:44;;;;;;;7.82;5.05;;;7.10;99.90;;;;;;5032742;28;20101;-53
2023/11/12 04:35:13;;;;;;;6.88;5.22;;;7.10;99.90;;;;;;5032748;28;20091;-54
2023/11/12 04:37:39;;;;;;;8.98;5.28;;;7.20;99.90;;;;;;5032422;28;20107;-52
2023/11/12 04:40:09;;;;;;;13.38;5.45;;;7.30;99.90;;;;;;5032501;28;20025;-53
2023/11/12 04:42:35;;;;;;;7.70;5.53;;;7.30;99.90;;;;;;5032714;28;20021;-53
2023/11/12 04:45:01;;;;;;;6.53;4.63;;;7.40;99.90;;;;;;5032677;28;20025;-53
2023/11/12 04:47:26;;;;;;;7.13;4.47;;;7.40;99.90;;;;;;5031966;28;20455;-38
2023/11/12 04:49:52;;;;;;;7.40;4.53;;;7.40;99.90;;;;;;5031867;28;20402;-38
2023/11/12 04:52:18;;;;;;;8.52;5.53;;;7.40;99.90;;;;;;5029791;28;20036;-39
2023/11/12 04:54:47;;;;;;;12.25;4.97;;;7.40;99.90;;;;;;5031146;28;20018;-38
2023/11/12 04:57:13;;;;;;;9.07;5.07;;;7.40;99.90;;;;;;5032358;28;20474;-37
2023/11/12 04:59:42;;;;;;;6.13;4.72;;;7.50;99.90;;;;;;5043813;28;20466;-37
2023/11/12 05:02:12;;;;;;;8.80;5.35;;;7.50;99.90;;;;;;5048363;28;20049;-37
2023/11/12 05:04:38;;;;;;;7.45;5.63;;;7.60;99.90;;;;;;5032476;28;20021;-37
2023/11/12 05:07:05;;;;;;;8.45;4.65;;;7.60;99.90;;;;;;5032354;28;20382;-37
2023/11/12 05:09:30;;;;;;;8.98;5.45;;;7.60;99.90;;;;;;5032278;28;20026;-38
2023/11/12 05:11:56;;;;;;;7.53;5.28;;;7.60;99.90;;;;;;5031863;28;20026;-37
2023/11/12 05:14:23;;;;;;;9.65;5.93;;;7.60;99.90;;;;;;5031990;28;20064;-37
2023/11/12 05:16:48;;;;;;;10.38;6.10;;;7.70;99.90;;;;;;5032124;28;20624;-40
2023/11/12 05:19:15;;;;;;;10.60;6.53;;;7.70;99.90;;;;;;5032238;28;20049;-37
2023/11/12 05:21:44;;;;;;;15.52;5.90;;;7.70;99.90;;;;;;5032287;28;20041;-54
2023/11/12 05:24:14;;;;;;;7.60;5.10;;;7.70;99.90;;;;;;5032324;28;20517;-54
2023/11/12 05:26:40;;;;;;;10.48;6.03;;;7.70;99.90;;;;;;5032041;28;20155;-49
2023/11/12 05:29:07;;;;;;;11.23;5.93;;;7.70;99.90;;;;;;5031862;28;20473;-53
2023/11/12 05:31:33;;;;;;;7.38;5.28;;;7.70;99.90;;;;;;5032605;28;20386;-53
2023/11/12 05:34:00;;;;;;;7.97;5.32;;;7.70;99.90;;;;;;5033352;28;20432;-54
2023/11/12 05:36:25;;;;;;;9.32;6.32;;;7.80;99.90;;;;;;5032570;28;20080;-53
2023/11/12 05:38:51;;;;;;;14.38;7.28;;;7.70;99.90;;;;;;5033909;28;20053;-54
2023/11/12 05:41:16;;;;;;;9.40;5.97;;;7.80;99.90;;;;;;5035458;28;20025;-54
2023/11/12 05:43:42;;;;;;;13.43;6.18;;;7.80;99.90;;;;;;5035761;28;20446;-54
2023/11/12 05:46:08;;;;;;;7.88;5.78;;;7.80;99.90;;;;;;5035408;28;20382;-54
2023/11/12 05:48:34;;;;;;;11.18;6.35;;;7.80;99.90;;;;;;5032427;28;20017;-38
2023/11/12 05:51:00;;;;;;;9.82;5.90;;;7.80;99.90;;;;;;5033752;28;20037;-37
2023/11/12 05:53:26;;;;;;;8.55;5.78;;;7.80;99.90;;;;;;5034719;28;20037;-36
2023/11/12 05:55:52;;;;;;;9.70;6.25;;;7.80;99.90;;;;;;5033834;28;20179;-37
2023/11/12 05:58:17;;;;;;;9.45;5.90;;;7.80;99.90;;;;;;5032711;28;20516;-38
2023/11/12 06:00:43;;;;;;;8.93;5.75;;;7.90;99.90;;;;;;5033512;28;20018;-37
2023/11/12 06:03:11;;;;;;;10.88;5.93;;;7.90;99.90;;;;;;5034743;28;20477;-39
2023/11/12 06:05:37;;;;;;;;;;;7.90;99.90;;;;;;5035018;28;20029;-39
2023/11/12 06:08:03;;;;;;;8.30;5.32;;;7.90;99.90;;;;;;5031648;28;19909;-40
2023/11/12 06:10:29;;;;;;;8.00;4.78;;;7.80;99.90;;;;;;5032664;28;20017;-37
2023/11/12 06:12:56;;;;;;;9.55;5.85;;;7.90;99.90;;;;;;5032894;28;20029;-38
2023/11/12 06:15:27;;;;;;;8.38;5.22;;;7.80;99.90;;;;;;5032309;28;20057;-41
2023/11/12 06:17:55;;;;;;;11.30;6.22;;;7.90;99.90;;;;;;5032887;28;20474;-41
2023/11/12 06:20:21;;;;;;;8.88;5.80;;;7.80;99.90;;;;;;5034121;28;20021;-37
2023/11/12 06:22:47;;;;;;;8.95;5.90;;;7.80;99.90;;;;;;5030632;28;20105;-41
2023/11/12 06:25:13;;;;;;;12.70;5.38;;;7.80;99.90;;;;;;5034081;28;20091;-37
2023/11/12 06:27:39;;;;;;;9.82;6.28;;;7.80;99.90;;;;;;5033939;28;20033;-38
2023/11/12 06:30:07;;;;;;;11.63;6.32;;;7.80;99.90;;;;;;5034149;28;20470;-37
2023/11/12 06:32:33;;;;;;;11.82;6.22;;;7.80;99.90;;;;;;5032997;28;20026;-38
2023/11/12 06:34:59;;;;;;;19.40;6.75;;;7.80;99.90;;;;;;5033687;28;20060;-38
2023/11/12 06:37:26;;;;;;;12.52;7.38;;;7.80;99.90;;;;;;5032376;28;20467;-54
2023/11/12 06:39:52;;;;;;;11.35;7.03;;;7.80;99.90;;;;;;5031660;28;20091;-54
2023/11/12 06:42:20;;;;;;;18.63;7.15;;;7.80;99.90;;;;;;5033606;28;20476;-54
2023/11/12 06:44:46;;;;;;;12.55;7.03;;;7.80;99.90;;;;;;5034820;28;20021;-54
2023/11/12 06:47:14;;;;;;;13.00;7.25;;;7.80;99.90;;;;;;5034420;28;20023;-54
2023/11/12 06:49:40;;;;;;;11.40;7.13;;;7.80;99.90;;;;;;5032974;28;20017;-55
2023/11/12 06:52:06;;;;;;;9.57;6.00;;;7.80;99.90;;;;;;5033823;28;20026;-55
2023/11/12 06:54:31;;;;;;;17.35;9.32;;;7.80;99.90;;;;;;5033607;28;20394;-53
2023/11/12 06:56:59;;;;;;;12.63;6.72;;;7.70;99.90;;;;;;5032397;28;20017;-56
2023/11/12 06:59:25;;;;;;;9.55;5.72;;;7.80;99.90;;;;;;5034239;28;20025;-54
2023/11/12 07:01:51;;;;;;;15.00;6.57;;;7.80;99.90;;;;;;5034216;28;20021;-55
2023/11/12 07:04:16;;;;;;;15.52;6.85;;;7.80;99.90;;;;;;5034438;28;20105;-53
2023/11/12 07:06:42;;;;;;;10.07;6.55;;;7.80;99.90;;;;;;5033686;28;20036;-54
2023/11/12 07:09:08;;;;;;;10.98;6.28;;;7.80;99.90;;;;;;5032310;28;20018;-53
2023/11/12 07:11:34;;;;;;;12.77;7.03;;;7.80;99.90;;;;;;5033725;28;20060;-54
2023/11/12 07:14:00;;;;;;;14.55;6.35;;;7.80;99.90;;;;;;5033530;28;20049;-54
2023/11/12 07:16:25;;;;;;;12.48;6.75;;;7.80;99.90;;;;;;5033923;28;20025;-54
2023/11/12 07:18:51;;;;;;;10.23;6.45;;;7.90;99.90;;;;;;5033918;28;20493;-55
2023/11/12 07:21:27;;;;;;;8.90;6.25;;;7.90;99.90;;;;;;5033868;28;20026;-51
2023/11/12 07:23:53;;;;;;;17.23;7.35;;;7.90;99.90;;;;;;5031345;28;20083;-54
2023/11/12 07:26:19;;;;;;;15.27;7.22;;;8.00;99.90;;;;;;5032352;28;20428;-53
2023/11/12 07:28:45;;;;;;;15.63;8.40;;;7.90;99.90;;;;;;5032161;28;20537;-53
2023/11/12 07:31:11;;;;;;;16.05;7.60;;;8.00;99.90;;;;;;5028758;28;20109;-55
2023/11/12 07:33:38;;;;;;;15.82;7.88;;;8.00;99.90;;;;;;5032013;28;20432;-55
2023/11/12 07:36:05;;;;;;;17.35;8.82;;;7.90;99.90;;;;;;5034006;28;20029;-55
2023/11/12 07:38:31;;;;;;;14.50;8.18;;;7.90;99.90;;;;;;5033266;28;20044;-48
2023/11/12 07:40:58;;;;;;;14.30;7.70;;;8.00;99.90;;;;;;5034192;28;20050;-54
2023/11/12 07:43:25;;;;;;;12.00;7.30;;;8.00;99.90;;;;;;5033512;28;20068;-55
2023/11/12 07:45:50;;;;;;;17.60;7.43;;;8.00;99.90;;;;;;5033251;28;20056;-58
2023/11/12 07:48:17;;;;;;;11.70;7.38;;;8.00;99.90;;;;;;5033318;28;20029;-52
2023/11/12 07:50:43;;;;;;;14.38;8.05;;;8.10;99.90;;;;;;5033468;28;20493;-54
2023/11/12 07:53:08;;;;;;;13.15;7.68;;;8.10;99.90;;;;;;5033389;28;20026;-58
2023/11/12 07:55:34;;;;;;;15.30;7.93;;;8.10;99.90;;;;;;5032989;28;20108;-55
2023/11/12 07:58:00;;;;;;;12.45;7.70;;;8.10;99.90;;;;;;5033165;28;20097;-58
2023/11/12 08:00:25;;;;;;;12.73;6.85;;;8.20;99.90;;;;;;5033234;28;20018;-54
2023/11/12 08:02:51;;;;;;;21.83;8.13;;;8.20;99.90;;;;;;5032729;28;20478;-54
2023/11/12 08:05:18;;;;;;;21.17;8.65;;;8.20;99.90;;;;;;5032921;28;20075;-55
2023/11/12 08:07:44;;;;;;;15.50;7.40;;;8.20;99.90;;;;;;5033018;28;20026;-52
2023/11/12 08:10:10;;;;;;;13.93;7.45;;;8.20;99.90;;;;;;5033311;28;20390;-53
2023/11/12 08:12:37;;;;;;;13.98;7.05;;;8.30;99.90;;;;;;5032913;28;20052;-53
2023/11/12 08:15:05;;;;;;;13.68;8.40;;;8.40;99.90;;;;;;5032983;28;20470;-55
2023/11/12 08:17:31;;;;;;;14.82;7.70;;;8.40;99.90;;;;;;5032876;28;20029;-54
2023/11/12 08:19:56;;;;;;;18.27;8.65;;;8.40;99.90;;;;;;5032755;28;20156;-55
2023/11/12 08:22:22;;;;;;;13.50;7.97;;;8.40;99.90;;;;;;5032701;28;20017;-53
2023/11/12 08:24:48;;;;;;;14.32;6.60;;;8.50;99.90;;;;;;5032932;28;20112;-54
2023/11/12 08:27:14;;;;;;;13.77;7.38;;;8.50;99.90;;;;;;5032767;28;20053;-54
2023/11/12 08:29:40;;;;;;;14.50;7.45;;;8.50;99.90;;;;;;5032745;28;20441;-54
2023/11/12 08:32:06;;;;;;;15.80;7.18;;;8.40;99.90;;;;;;5033047;28;20025;-55
2023/11/12 08:34:32;;;;;;;15.48;7.45;;;8.40;99.90;;;;;;5032504;28;20485;-53
2023/11/12 08:36:58;;;;;;;11.75;6.70;;;8.30;99.90;;;;;;5031538;28;20529;-54
2023/11/12 08:39:24;;;;;;;11.93;7.22;;;8.30;99.90;;;;;;5030983;28;20141;-55
2023/11/12 08:41:50;;;;;;;13.35;7.00;;;8.30;99.90;;;;;;5028781;28;20437;-41
2023/11/12 08:44:16;;;;;;;13.70;6.93;;;8.30;99.90;;;;;;5033245;28;20014;-45
2023/11/12 08:46:42;;;;;;;12.65;7.20;;;8.30;99.90;;;;;;5025249;28;20704;-38
2023/11/12 08:49:08;;;;;;;11.20;6.45;;;8.20;99.90;;;;;;5026050;28;20026;-38
2023/11/12 08:51:35;;;;;;;17.38;6.72;;;8.20;99.90;;;;;;5024346;28;20024;-38
2023/11/12 08:54:04;;;;;;;12.13;7.13;;;8.20;99.90;;;;;;5023220;28;20033;-39
2023/11/12 08:56:31;;;;;;;19.05;7.65;;;8.20;99.90;;;;;;5022575;28;20033;-41
2023/11/12 08:58:57;;;;;;;13.93;6.72;;;8.20;99.90;;;;;;5025830;28;20025;-38
2023/11/12 09:01:23;;;;;;;16.08;7.47;;;8.20;99.90;;;;;;5034268;28;20018;-37
2023/11/12 09:03:48;;;;;;;16.08;7.78;;;8.30;99.90;;;;;;5031633;28;20021;-39
2023/11/12 09:06:14;;;;;;;13.20;7.10;;;8.30;99.90;;;;;;5032199;28;20100;-37
2023/11/12 09:08:39;;;;;;;14.25;8.57;;;8.40;99.90;;;;;;5055434;28;20489;-40
2023/11/12 09:11:05;;;;;;;14.07;7.57;;;8.50;99.90;;;;;;5044879;28;20025;-38
2023/11/12 09:13:31;;;;;;;17.75;8.75;;;8.50;99.90;;;;;;5036274;28;20222;-39
2023/11/12 09:15:58;;;;;;;15.20;7.40;;;8.60;99.90;;;;;;5036276;28;20036;-39
2023/11/12 09:18:24;;;;;;;16.95;8.25;;;8.60;99.90;;;;;;5034802;28;20432;-38
2023/11/12 09:20:54;;;;;;;18.35;8.18;;;8.70;99.90;;;;;;5036496;28;20492;-40
2023/11/12 09:23:20;;;;;;;14.02;8.43;;;8.80;99.90;;;;;;5036056;28;20018;-38
2023/11/12 09:25:45;;;;;;;20.80;8.95;;;8.90;99.90;;;;;;5036093;28;20486;-40
2023/11/12 09:28:11;;;;;;;21.13;9.50;;;9.00;99.90;;;;;;5035762;28;20068;-39
2023/11/12 09:30:37;;;;;;;15.63;7.65;;;9.20;99.90;;;;;;5035960;28;20515;-40
2023/11/12 09:33:04;;;;;;;9.70;7.63;;;9.30;99.90;;;;;;5029559;28;20076;-40
2023/11/12 09:35:30;;;;;;;15.35;8.05;;;9.30;99.90;;;;;;5035276;28;20021;-40
2023/11/12 09:37:56;;;;;;;16.63;7.72;;;9.30;99.90;;;;;;5034196;28;20041;-41
2023/11/12 09:40:23;;;;;;;13.35;7.93;;;9.30;99.90;;;;;;5035838;28;20169;-42
2023/11/12 09:42:53;;;;;;;25.05;8.90;;;9.40;99.90;;;;;;5035776;28;20049;-38
2023/11/12 09:45:19;;;;;;;12.65;7.75;;;9.50;99.90;;;;;;5035507;28;20084;-39
2023/11/12 09:47:54;;;;;;;18.08;7.35;;;9.50;99.90;;;;;;5034566;28;20060;-40
2023/11/12 09:50:20;;;;;;;11.88;8.32;;;9.60;99.90;;;;;;5035482;28;20025;-43
2023/11/12 09:52:47;;;;;;;13.13;7.75;;;9.60;99.90;;;;;;5038678;28;20028;-38
2023/11/12 09:55:16;;;;;;;12.18;7.47;;;9.60;99.90;;;;;;5055423;28;20028;-40
2023/11/12 09:57:43;;;;;;;14.38;7.70;;;9.70;99.90;;;;;;5055571;28;20523;-39
2023/11/12 10:00:12;;;;;;;16.67;7.68;;;9.70;99.90;;;;;;5054044;28;20025;-43
2023/11/12 10:02:38;;;;;;;11.93;7.03;;;9.70;99.90;;;;;;5035056;28;20026;-44
2023/11/12 10:05:10;;;;;;;14.93;7.57;;;9.70;99.90;;;;;;5039500;28;20017;-39
2023/11/12 10:07:39;;;;;;;16.50;7.25;;;9.70;99.90;;;;;;5055495;28;20024;-38
2023/11/12 10:10:27;;;;;;;15.38;8.55;;;9.70;99.90;;;;;;5055217;28;20546;-40
2023/11/12 10:12:55;;;;;;;18.65;7.82;;;9.70;99.90;;;;;;5055444;28;20439;-38
2023/11/12 10:15:23;;;;;;;16.60;8.70;;;9.70;99.90;;;;;;5055078;28;20051;-41
2023/11/12 10:17:51;;;;;;;24.05;7.93;;;9.70;99.90;;;;;;5048958;28;20493;-43
2023/11/12 10:20:21;;;;;;;18.80;8.75;;;9.70;99.90;;;;;;5035145;28;20014;-42
2023/11/12 10:22:48;;;;;;;13.82;7.93;;;9.80;99.90;;;;;;5035031;28;20539;-41
2023/11/12 10:25:14;;;;;;;21.27;9.18;;;9.80;99.90;;;;;;5034956;28;20494;-40
2023/11/12 10:27:56;;;;;;;14.60;7.80;;;9.90;99.90;;;;;;5034929;28;20478;-40
2023/11/12 10:30:23;;;;;;;17.00;7.85;;;10.00;99.90;;;;;;5034926;28;20040;-39
2023/11/12 10:32:48;;;;;;;15.38;7.88;;;10.00;99.90;;;;;;5034765;28;20100;-39
2023/11/12 10:35:30;;;;;;;17.52;8.48;;;10.00;99.90;;;;;;5033407;28;20111;-39
2023/11/12 10:37:59;;;;;;;22.05;8.20;;;10.10;99.90;;;;;;5034579;28;20042;-40
2023/11/12 10:40:25;;;;;;;18.27;8.55;;;10.20;99.90;;;;;;5034996;28;20026;-42
2023/11/12 10:42:58;;;;;;;17.73;7.55;;;10.30;99.90;;;;;;5034468;28;20537;-40
2023/11/12 10:45:27;;;;;;;21.25;8.38;;;10.40;99.90;;;;;;5031180;28;20032;-39
2023/11/12 10:47:56;;;;;;;15.20;7.28;;;10.40;99.90;;;;;;5033113;28;20040;-40
2023/11/12 10:50:24;;;;;;;15.35;7.32;;;10.50;99.90;;;;;;5034356;28;20133;-40
2023/11/12 10:52:53;;;;;;;11.85;7.22;;;10.60;99.90;;;;;;5034074;28;20052;-40
2023/11/12 10:55:24;;;;;;;16.67;8.40;;;10.50;99.90;;;;;;5034213;28;20406;-38
2023/11/12 10:57:50;;;;;;;13.90;7.18;;;10.50;99.90;;;;;;5034333;28;20470;-40
2023/11/12 11:00:19;;;;;;;13.70;8.63;;;10.50;99.90;;;;;;5034241;28;20493;-39
2023/11/12 11:02:48;;;;;;;11.27;7.57;;;10.50;99.90;;;;;;5051537;28;20029;-39
2023/11/12 11:05:18;;;;;;;15.27;7.80;;;10.50;99.90;;;;;;5039980;28;20025;-40
2023/11/12 11:07:46;;;;;;;17.00;9.07;;;10.60;99.90;;;;;;5033832;28;20029;-40
2023/11/12 11:10:12;;;;;;;17.05;9.30;;;10.70;99.90;;;;;;5034102;28;20425;-39
2023/11/12 11:12:38;;;;;;;21.10;9.35;;;10.80;99.90;;;;;;5034091;28;20014;-39
2023/11/12 11:15:41;;;;;;;18.63;8.65;;;10.80;99.90;;;;;;5034016;28;20022;-38
2023/11/12 11:18:07;;;;;;;20.08;9.02;;;10.90;99.90;;;;;;5034120;28;20029;-39
2023/11/12 11:21:01;;;;;;;16.23;9.20;;;11.00;99.90;;;;;;5033955;28;20018;-37
2023/11/12 11:23:40;;;;;;;26.25;10.90;;;11.00;99.90;;;;;;5033823;28;20064;-37
2023/11/12 11:26:27;;;;;;;21.10;10.60;;;11.00;99.90;;;;;;5033882;28;20029;-39
2023/11/12 11:29:04;;;;;;;21.13;11.40;;;11.00;99.90;;;;;;5032750;28;20505;-38
2023/11/12 11:31:39;;;;;;;21.13;10.68;;;10.90;99.90;;;;;;5034066;28;20029;-38
2023/11/12 11:34:07;;;;;;;21.45;9.95;;;10.80;99.90;;;;;;5033829;28;20123;-39
2023/11/12 11:36:34;;;;;;;29.58;11.63;;;10.70;99.90;;;;;;5033783;28;20474;-39
2023/11/12 11:39:10;;;;;;;21.63;11.13;;;10.60;99.90;;;;;;5033428;28;20033;-39
2023/11/12 11:41:45;;;;;;;24.42;10.75;;;10.60;99.90;;;;;;5023739;28;20079;-39
2023/11/12 11:44:41;;;;;;;21.17;10.93;;;10.50;99.90;;;;;;5033129;28;20105;-39
2023/11/12 11:47:16;;;;;;;25.80;10.55;;;10.60;99.90;;;;;;5033338;28;20501;-41
2023/11/12 11:49:57;;;;;;;24.52;10.65;;;10.50;99.90;;;;;;5033345;28;20086;-39
2023/11/12 11:52:26;;;;;;;24.05;10.85;;;10.50;99.90;;;;;;5033558;28;20025;-40
2023/11/12 11:54:57;;;;;;;28.08;11.68;;;10.60;99.90;;;;;;5031897;28;20030;-40
2023/11/12 11:57:27;;;;;;;24.58;11.05;;;10.50;99.90;;;;;;5033425;28;20486;-39
2023/11/12 11:59:54;;;;;;;25.45;11.45;;;10.50;99.90;;;;;;5033073;28;20056;-37
2023/11/12 12:02:21;;;;;;;34.50;14.07;;;10.50;99.90;;;;;;5032982;28;20029;-38
2023/11/12 12:04:57;;;;;;;24.80;12.10;;;10.40;99.90;;;;;;5034436;28;20040;-39
2023/11/12 12:07:26;;;;;;;23.27;11.25;;;10.30;99.90;;;;;;5026549;28;20486;-38
2023/11/12 12:09:54;;;;;;;23.00;11.85;;;10.10;99.90;;;;;;5032917;28;20041;-40
2023/11/12 12:12:21;;;;;;;21.33;9.90;;;9.90;99.90;;;;;;5032878;28;20029;-43
2023/11/12 12:14:46;;;;;;;18.05;9.27;;;9.80;99.90;;;;;;5031552;28;20059;-39
2023/11/12 12:17:13;;;;;;;13.32;7.25;;;9.60;99.90;;;;;;5034797;28;20056;-38
2023/11/12 12:19:39;;;;;;;11.15;6.97;;;9.50;99.90;;;;;;5032612;28;20025;-39
2023/11/12 12:22:05;;;;;;;15.85;6.50;;;9.40;99.90;;;;;;5033203;28;20386;-39
2023/11/12 12:24:33;;;;;;;14.63;6.60;;;9.30;99.90;;;;;;5032777;28;20026;-42
2023/11/12 12:27:09;;;;;;;11.52;7.15;;;9.10;99.90;;;;;;5032833;28;20045;-38
2023/11/12 12:29:37;;;;;;;16.02;7.55;;;8.90;99.90;;;;;;5032816;28;20083;-39
2023/11/12 12:32:18;;;;;;;17.00;8.35;;;8.80;99.90;;;;;;5033078;28;20382;-43
2023/11/12 12:34:45;;;;;;;14.80;7.75;;;8.80;99.90;;;;;;5031676;28;20444;-42
2023/11/12 12:37:18;;;;;;;13.30;6.93;;;8.70;99.90;;;;;;5032764;28;20424;-38
2023/11/12 12:39:52;;;;;;;13.02;7.80;;;8.60;99.90;;;;;;5032604;28;20025;-38
2023/11/12 12:42:22;;;;;;;15.45;8.15;;;8.60;99.90;;;;;;5038568;28;20421;-40
2023/11/12 12:44:49;;;;;;;10.85;6.78;;;8.60;99.90;;;;;;5038540;28;20483;-39
2023/11/12 12:47:35;;;;;;;15.13;7.43;;;8.60;99.90;;;;;;5038767;28;20032;-38
2023/11/12 12:50:29;;;;;;;14.95;9.13;;;8.70;99.90;;;;;;5038122;28;20028;-38
2023/11/12 12:53:15;;;;;;;14.50;7.15;;;8.70;99.90;;;;;;5037418;28;20136;-43
2023/11/12 12:55:43;;;;;;;13.07;6.97;;;8.70;99.90;;;;;;5038817;28;20037;-41